sensor_id;sensor_type;location;lat;lon;timestamp;P1;durP1;ratioP1;P2;durP2;ratioP2
42760;SDS011;31672;47.638;19.026;2023-04-22T00:01:27;7.70;;;4.37;;
42760;SDS011;31672;47.638;19.026;2023-04-22T00:06:30;9.30;;;5.07;;
42760;SDS011;31672;47.638;19.026;2023-04-22T00:11:33;6.90;;;4.93;;
42760;SDS011;31672;47.638;19.026;2023-04-22T00:16:36;9.17;;;5.20;;
42760;SDS011;31672;47.638;19.026;2023-04-22T00:21:40;8.33;;;5.67;;
42760;SDS011;31672;47.638;19.026;2023-04-22T00:26:43;7.83;;;5.20;;
42760;SDS011;31672;47.638;19.026;2023-04-22T00:31:46;7.57;;;5.33;;
42760;SDS011;31672;47.638;19.026;2023-04-22T00:36:50;11.00;;;5.20;;
42760;SDS011;31672;47.638;19.026;2023-04-22T00:41:53;9.47;;;5.40;;
42760;SDS011;31672;47.638;19.026;2023-04-22T00:46:56;8.60;;;4.63;;
42760;SDS011;31672;47.638;19.026;2023-04-22T00:52:01;6.30;;;4.63;;
42760;SDS011;31672;47.638;19.026;2023-04-22T00:57:05;10.07;;;5.80;;
42760;SDS011;31672;47.638;19.026;2023-04-22T01:02:08;9.60;;;5.23;;
42760;SDS011;31672;47.638;19.026;2023-04-22T01:07:11;7.30;;;5.33;;
42760;SDS011;31672;47.638;19.026;2023-04-22T01:12:15;7.17;;;4.87;;
42760;SDS011;31672;47.638;19.026;2023-04-22T01:17:18;10.93;;;5.93;;
42760;SDS011;31672;47.638;19.026;2023-04-22T01:22:24;10.40;;;4.60;;
42760;SDS011;31672;47.638;19.026;2023-04-22T01:27:30;11.43;;;6.50;;
42760;SDS011;31672;47.638;19.026;2023-04-22T01:32:36;6.83;;;5.30;;
42760;SDS011;31672;47.638;19.026;2023-04-22T01:37:42;10.67;;;5.53;;
42760;SDS011;31672;47.638;19.026;2023-04-22T01:42:46;9.10;;;6.00;;
42760;SDS011;31672;47.638;19.026;2023-04-22T01:47:49;6.73;;;4.47;;
42760;SDS011;31672;47.638;19.026;2023-04-22T01:52:52;7.33;;;4.27;;
42760;SDS011;31672;47.638;19.026;2023-04-22T01:57:55;6.77;;;4.40;;
42760;SDS011;31672;47.638;19.026;2023-04-22T02:02:58;7.43;;;4.67;;
42760;SDS011;31672;47.638;19.026;2023-04-22T02:08:01;8.87;;;4.57;;
42760;SDS011;31672;47.638;19.026;2023-04-22T02:13:05;7.87;;;4.70;;
42760;SDS011;31672;47.638;19.026;2023-04-22T02:18:09;7.03;;;4.97;;
42760;SDS011;31672;47.638;19.026;2023-04-22T02:23:12;6.93;;;4.10;;
42760;SDS011;31672;47.638;19.026;2023-04-22T02:28:15;9.53;;;4.33;;
42760;SDS011;31672;47.638;19.026;2023-04-22T02:33:19;7.60;;;5.80;;
42760;SDS011;31672;47.638;19.026;2023-04-22T02:38:22;10.40;;;5.00;;
42760;SDS011;31672;47.638;19.026;2023-04-22T02:43:25;7.17;;;4.70;;
42760;SDS011;31672;47.638;19.026;2023-04-22T02:48:28;7.80;;;4.83;;
42760;SDS011;31672;47.638;19.026;2023-04-22T02:53:31;7.27;;;4.60;;
42760;SDS011;31672;47.638;19.026;2023-04-22T02:58:34;7.63;;;4.90;;
42760;SDS011;31672;47.638;19.026;2023-04-22T03:03:37;11.83;;;5.73;;
42760;SDS011;31672;47.638;19.026;2023-04-22T03:08:41;7.93;;;4.40;;
42760;SDS011;31672;47.638;19.026;2023-04-22T03:13:45;9.10;;;4.57;;
42760;SDS011;31672;47.638;19.026;2023-04-22T03:18:48;8.27;;;5.40;;
42760;SDS011;31672;47.638;19.026;2023-04-22T03:23:51;10.67;;;5.70;;
42760;SDS011;31672;47.638;19.026;2023-04-22T03:28:54;6.30;;;4.80;;
42760;SDS011;31672;47.638;19.026;2023-04-22T03:33:57;7.67;;;4.50;;
42760;SDS011;31672;47.638;19.026;2023-04-22T03:39:00;6.53;;;4.40;;
42760;SDS011;31672;47.638;19.026;2023-04-22T03:44:03;9.27;;;5.80;;
42760;SDS011;31672;47.638;19.026;2023-04-22T03:49:06;9.33;;;5.60;;
42760;SDS011;31672;47.638;19.026;2023-04-22T03:54:09;7.83;;;5.10;;
42760;SDS011;31672;47.638;19.026;2023-04-22T03:59:12;9.40;;;5.27;;
42760;SDS011;31672;47.638;19.026;2023-04-22T04:04:15;11.93;;;5.50;;
42760;SDS011;31672;47.638;19.026;2023-04-22T04:09:18;7.57;;;4.47;;
42760;SDS011;31672;47.638;19.026;2023-04-22T04:14:21;8.30;;;4.27;;
42760;SDS011;31672;47.638;19.026;2023-04-22T04:19:25;8.30;;;4.37;;
42760;SDS011;31672;47.638;19.026;2023-04-22T04:24:28;6.67;;;4.17;;
42760;SDS011;31672;47.638;19.026;2023-04-22T04:29:31;5.77;;;3.83;;
42760;SDS011;31672;47.638;19.026;2023-04-22T04:34:34;6.00;;;3.80;;
42760;SDS011;31672;47.638;19.026;2023-04-22T04:39:38;5.07;;;3.27;;
42760;SDS011;31672;47.638;19.026;2023-04-22T04:44:43;3.80;;;2.53;;
42760;SDS011;31672;47.638;19.026;2023-04-22T04:49:48;5.07;;;3.43;;
42760;SDS011;31672;47.638;19.026;2023-04-22T04:54:54;6.47;;;3.77;;
42760;SDS011;31672;47.638;19.026;2023-04-22T04:59:57;4.87;;;2.97;;
42760;SDS011;31672;47.638;19.026;2023-04-22T05:05:00;5.80;;;3.13;;
42760;SDS011;31672;47.638;19.026;2023-04-22T05:10:04;5.07;;;3.30;;
42760;SDS011;31672;47.638;19.026;2023-04-22T05:15:09;5.40;;;2.83;;
42760;SDS011;31672;47.638;19.026;2023-04-22T05:20:12;6.63;;;4.47;;
42760;SDS011;31672;47.638;19.026;2023-04-22T05:25:15;5.03;;;3.40;;
42760;SDS011;31672;47.638;19.026;2023-04-22T05:30:18;5.37;;;2.97;;
42760;SDS011;31672;47.638;19.026;2023-04-22T05:35:21;3.97;;;2.80;;
42760;SDS011;31672;47.638;19.026;2023-04-22T05:40:24;4.33;;;2.70;;
42760;SDS011;31672;47.638;19.026;2023-04-22T05:45:27;6.13;;;2.40;;
42760;SDS011;31672;47.638;19.026;2023-04-22T05:50:30;3.60;;;2.53;;
42760;SDS011;31672;47.638;19.026;2023-04-22T05:55:33;4.97;;;2.63;;
42760;SDS011;31672;47.638;19.026;2023-04-22T06:00:36;4.00;;;2.77;;
42760;SDS011;31672;47.638;19.026;2023-04-22T06:05:39;5.23;;;3.40;;
42760;SDS011;31672;47.638;19.026;2023-04-22T06:10:44;7.63;;;4.10;;
42760;SDS011;31672;47.638;19.026;2023-04-22T06:15:47;8.47;;;4.17;;
42760;SDS011;31672;47.638;19.026;2023-04-22T06:20:50;6.10;;;4.50;;
42760;SDS011;31672;47.638;19.026;2023-04-22T06:25:53;11.27;;;4.40;;
42760;SDS011;31672;47.638;19.026;2023-04-22T06:30:56;7.20;;;4.23;;
42760;SDS011;31672;47.638;19.026;2023-04-22T06:35:59;6.47;;;3.60;;
42760;SDS011;31672;47.638;19.026;2023-04-22T06:41:02;7.97;;;3.60;;
42760;SDS011;31672;47.638;19.026;2023-04-22T06:46:06;4.50;;;3.30;;
42760;SDS011;31672;47.638;19.026;2023-04-22T06:51:09;12.00;;;4.00;;
42760;SDS011;31672;47.638;19.026;2023-04-22T06:56:12;5.63;;;3.50;;
42760;SDS011;31672;47.638;19.026;2023-04-22T07:01:16;8.48;;;3.78;;
42760;SDS011;31672;47.638;19.026;2023-04-22T07:06:20;6.70;;;3.78;;
42760;SDS011;31672;47.638;19.026;2023-04-22T07:11:23;5.30;;;3.40;;
42760;SDS011;31672;47.638;19.026;2023-04-22T07:16:26;5.85;;;3.65;;
42760;SDS011;31672;47.638;19.026;2023-04-22T07:21:30;5.20;;;3.40;;
42760;SDS011;31672;47.638;19.026;2023-04-22T07:26:33;6.47;;;3.38;;
42760;SDS011;31672;47.638;19.026;2023-04-22T07:31:36;4.35;;;2.58;;
42760;SDS011;31672;47.638;19.026;2023-04-22T07:36:40;6.15;;;3.22;;
42760;SDS011;31672;47.638;19.026;2023-04-22T07:41:45;7.35;;;2.80;;
42760;SDS011;31672;47.638;19.026;2023-04-22T07:46:48;5.35;;;2.80;;
42760;SDS011;31672;47.638;19.026;2023-04-22T07:51:51;6.65;;;2.70;;
42760;SDS011;31672;47.638;19.026;2023-04-22T07:56:54;7.25;;;3.13;;
42760;SDS011;31672;47.638;19.026;2023-04-22T08:01:59;4.72;;;3.20;;
42760;SDS011;31672;47.638;19.026;2023-04-22T08:07:02;6.85;;;3.45;;
42760;SDS011;31672;47.638;19.026;2023-04-22T08:12:26;7.78;;;3.33;;
42760;SDS011;31672;47.638;19.026;2023-04-22T08:17:30;5.70;;;3.38;;
42760;SDS011;31672;47.638;19.026;2023-04-22T08:22:33;6.93;;;3.65;;
42760;SDS011;31672;47.638;19.026;2023-04-22T08:27:37;5.55;;;3.03;;
42760;SDS011;31672;47.638;19.026;2023-04-22T08:32:40;5.95;;;3.70;;
42760;SDS011;31672;47.638;19.026;2023-04-22T08:37:43;6.25;;;3.42;;
42760;SDS011;31672;47.638;19.026;2023-04-22T08:42:46;4.80;;;3.20;;
42760;SDS011;31672;47.638;19.026;2023-04-22T08:47:51;8.63;;;3.90;;
42760;SDS011;31672;47.638;19.026;2023-04-22T08:52:55;6.05;;;3.28;;
42760;SDS011;31672;47.638;19.026;2023-04-22T08:57:59;15.52;;;4.85;;
42760;SDS011;31672;47.638;19.026;2023-04-22T09:03:05;6.20;;;2.80;;
42760;SDS011;31672;47.638;19.026;2023-04-22T09:08:09;7.32;;;2.80;;
42760;SDS011;31672;47.638;19.026;2023-04-22T09:13:13;4.97;;;3.50;;
42760;SDS011;31672;47.638;19.026;2023-04-22T09:18:18;10.38;;;3.40;;
42760;SDS011;31672;47.638;19.026;2023-04-22T09:23:21;3.97;;;2.88;;
42760;SDS011;31672;47.638;19.026;2023-04-22T09:28:24;3.97;;;2.40;;
42760;SDS011;31672;47.638;19.026;2023-04-22T09:33:27;4.68;;;2.38;;
42760;SDS011;31672;47.638;19.026;2023-04-22T09:38:33;6.28;;;2.75;;
42760;SDS011;31672;47.638;19.026;2023-04-22T09:43:36;4.00;;;2.88;;
42760;SDS011;31672;47.638;19.026;2023-04-22T09:48:42;3.13;;;2.15;;
42760;SDS011;31672;47.638;19.026;2023-04-22T09:59:20;9.70;;;3.03;;
42760;SDS011;31672;47.638;19.026;2023-04-22T10:04:32;9.67;;;3.43;;
42760;SDS011;31672;47.638;19.026;2023-04-22T10:09:35;8.50;;;3.17;;
42760;SDS011;31672;47.638;19.026;2023-04-22T10:14:39;4.40;;;2.85;;
42760;SDS011;31672;47.638;19.026;2023-04-22T10:19:42;9.63;;;3.30;;
42760;SDS011;31672;47.638;19.026;2023-04-22T10:24:48;5.88;;;2.80;;
42760;SDS011;31672;47.638;19.026;2023-04-22T10:29:56;3.83;;;2.53;;
42760;SDS011;31672;47.638;19.026;2023-04-22T10:35:09;4.15;;;2.83;;
42760;SDS011;31672;47.638;19.026;2023-04-22T10:40:16;4.68;;;2.88;;
42760;SDS011;31672;47.638;19.026;2023-04-22T10:45:23;3.90;;;2.67;;
42760;SDS011;31672;47.638;19.026;2023-04-22T10:50:29;5.30;;;3.63;;
42760;SDS011;31672;47.638;19.026;2023-04-22T10:55:47;5.65;;;3.00;;
42760;SDS011;31672;47.638;19.026;2023-04-22T11:00:53;6.60;;;2.90;;
42760;SDS011;31672;47.638;19.026;2023-04-22T11:06:19;3.85;;;2.78;;
42760;SDS011;31672;47.638;19.026;2023-04-22T11:11:23;5.53;;;3.17;;
42760;SDS011;31672;47.638;19.026;2023-04-22T11:16:27;4.18;;;2.88;;
42760;SDS011;31672;47.638;19.026;2023-04-22T11:21:31;5.10;;;2.83;;
42760;SDS011;31672;47.638;19.026;2023-04-22T11:26:34;6.45;;;2.70;;
42760;SDS011;31672;47.638;19.026;2023-04-22T11:31:44;5.05;;;2.58;;
42760;SDS011;31672;47.638;19.026;2023-04-22T11:36:48;6.10;;;3.10;;
42760;SDS011;31672;47.638;19.026;2023-04-22T11:41:51;4.10;;;2.67;;
42760;SDS011;31672;47.638;19.026;2023-04-22T11:46:55;5.18;;;2.92;;
42760;SDS011;31672;47.638;19.026;2023-04-22T11:51:58;6.18;;;2.70;;
42760;SDS011;31672;47.638;19.026;2023-04-22T11:57:05;4.22;;;2.80;;
42760;SDS011;31672;47.638;19.026;2023-04-22T12:02:09;4.07;;;3.05;;
42760;SDS011;31672;47.638;19.026;2023-04-22T12:07:13;4.57;;;2.50;;
42760;SDS011;31672;47.638;19.026;2023-04-22T12:12:17;5.45;;;2.67;;
42760;SDS011;31672;47.638;19.026;2023-04-22T12:17:23;4.57;;;2.65;;
42760;SDS011;31672;47.638;19.026;2023-04-22T12:22:27;3.97;;;2.72;;
42760;SDS011;31672;47.638;19.026;2023-04-22T12:27:31;4.50;;;2.50;;
42760;SDS011;31672;47.638;19.026;2023-04-22T12:32:34;3.72;;;1.98;;
42760;SDS011;31672;47.638;19.026;2023-04-22T12:37:37;3.75;;;2.45;;
42760;SDS011;31672;47.638;19.026;2023-04-22T12:42:40;3.05;;;2.20;;
42760;SDS011;31672;47.638;19.026;2023-04-22T12:47:43;5.53;;;2.50;;
42760;SDS011;31672;47.638;19.026;2023-04-22T12:52:48;4.32;;;2.90;;
42760;SDS011;31672;47.638;19.026;2023-04-22T12:57:51;3.63;;;2.80;;
42760;SDS011;31672;47.638;19.026;2023-04-22T13:02:54;4.95;;;2.40;;
42760;SDS011;31672;47.638;19.026;2023-04-22T13:07:58;3.53;;;2.75;;
42760;SDS011;31672;47.638;19.026;2023-04-22T13:13:09;5.70;;;2.72;;
42760;SDS011;31672;47.638;19.026;2023-04-22T13:18:20;7.72;;;2.92;;
42760;SDS011;31672;47.638;19.026;2023-04-22T13:23:25;3.30;;;2.60;;
42760;SDS011;31672;47.638;19.026;2023-04-22T13:28:28;4.65;;;2.35;;
42760;SDS011;31672;47.638;19.026;2023-04-22T13:33:32;5.05;;;2.67;;
42760;SDS011;31672;47.638;19.026;2023-04-22T13:38:35;4.38;;;2.70;;
42760;SDS011;31672;47.638;19.026;2023-04-22T13:43:38;5.20;;;2.72;;
42760;SDS011;31672;47.638;19.026;2023-04-22T13:48:41;2.60;;;2.08;;
42760;SDS011;31672;47.638;19.026;2023-04-22T13:53:44;4.10;;;2.85;;
42760;SDS011;31672;47.638;19.026;2023-04-22T13:58:47;5.85;;;3.20;;
42760;SDS011;31672;47.638;19.026;2023-04-22T14:03:50;4.32;;;2.92;;
42760;SDS011;31672;47.638;19.026;2023-04-22T14:08:55;4.28;;;2.35;;
42760;SDS011;31672;47.638;19.026;2023-04-22T14:13:59;6.03;;;3.08;;
42760;SDS011;31672;47.638;19.026;2023-04-22T14:19:01;5.93;;;2.67;;
42760;SDS011;31672;47.638;19.026;2023-04-22T14:24:07;4.70;;;3.10;;
42760;SDS011;31672;47.638;19.026;2023-04-22T14:29:10;8.02;;;3.25;;
42760;SDS011;31672;47.638;19.026;2023-04-22T14:34:13;5.18;;;2.50;;
42760;SDS011;31672;47.638;19.026;2023-04-22T14:39:17;6.18;;;2.75;;
42760;SDS011;31672;47.638;19.026;2023-04-22T14:44:19;7.82;;;3.20;;
42760;SDS011;31672;47.638;19.026;2023-04-22T14:49:23;4.80;;;2.83;;
42760;SDS011;31672;47.638;19.026;2023-04-22T14:54:26;4.57;;;3.08;;
42760;SDS011;31672;47.638;19.026;2023-04-22T14:59:29;4.35;;;2.58;;
42760;SDS011;31672;47.638;19.026;2023-04-22T15:04:32;5.07;;;3.15;;
42760;SDS011;31672;47.638;19.026;2023-04-22T15:09:35;4.18;;;2.60;;
42760;SDS011;31672;47.638;19.026;2023-04-22T15:14:38;4.55;;;2.53;;
42760;SDS011;31672;47.638;19.026;2023-04-22T15:19:41;3.45;;;2.33;;
42760;SDS011;31672;47.638;19.026;2023-04-22T15:24:45;4.63;;;3.00;;
42760;SDS011;31672;47.638;19.026;2023-04-22T15:29:49;4.55;;;3.10;;
42760;SDS011;31672;47.638;19.026;2023-04-22T15:34:53;4.72;;;2.88;;
42760;SDS011;31672;47.638;19.026;2023-04-22T15:39:57;5.72;;;3.50;;
42760;SDS011;31672;47.638;19.026;2023-04-22T15:45:01;3.88;;;2.75;;
42760;SDS011;31672;47.638;19.026;2023-04-22T15:50:06;10.43;;;3.92;;
42760;SDS011;31672;47.638;19.026;2023-04-22T15:55:11;5.18;;;3.20;;
42760;SDS011;31672;47.638;19.026;2023-04-22T16:00:14;5.20;;;2.60;;
42760;SDS011;31672;47.638;19.026;2023-04-22T16:05:18;3.50;;;2.60;;
42760;SDS011;31672;47.638;19.026;2023-04-22T16:10:22;5.72;;;2.90;;
42760;SDS011;31672;47.638;19.026;2023-04-22T16:15:27;4.13;;;2.63;;
42760;SDS011;31672;47.638;19.026;2023-04-22T16:20:30;4.47;;;2.80;;
42760;SDS011;31672;47.638;19.026;2023-04-22T16:25:33;4.43;;;2.95;;
42760;SDS011;31672;47.638;19.026;2023-04-22T16:30:37;3.78;;;2.83;;
42760;SDS011;31672;47.638;19.026;2023-04-22T16:42:47;4.60;;;2.70;;
42760;SDS011;31672;47.638;19.026;2023-04-22T16:47:50;6.20;;;3.33;;
42760;SDS011;31672;47.638;19.026;2023-04-22T16:52:53;6.82;;;4.63;;
42760;SDS011;31672;47.638;19.026;2023-04-22T16:57:56;10.45;;;4.93;;
42760;SDS011;31672;47.638;19.026;2023-04-22T17:03:02;7.03;;;5.15;;
42760;SDS011;31672;47.638;19.026;2023-04-22T17:08:06;9.38;;;5.05;;
42760;SDS011;31672;47.638;19.026;2023-04-22T17:13:09;12.15;;;6.60;;
42760;SDS011;31672;47.638;19.026;2023-04-22T17:18:14;9.32;;;5.68;;
42760;SDS011;31672;47.638;19.026;2023-04-22T17:23:17;12.23;;;5.15;;
42760;SDS011;31672;47.638;19.026;2023-04-22T17:28:21;8.48;;;4.85;;
42760;SDS011;31672;47.638;19.026;2023-04-22T17:33:24;6.45;;;3.60;;
42760;SDS011;31672;47.638;19.026;2023-04-22T17:38:28;8.25;;;3.60;;
42760;SDS011;31672;47.638;19.026;2023-04-22T17:43:31;8.60;;;4.78;;
42760;SDS011;31672;47.638;19.026;2023-04-22T17:48:34;6.05;;;4.00;;
42760;SDS011;31672;47.638;19.026;2023-04-22T17:53:37;12.05;;;6.38;;
42760;SDS011;31672;47.638;19.026;2023-04-22T17:58:43;7.32;;;4.75;;
42760;SDS011;31672;47.638;19.026;2023-04-22T18:03:46;7.30;;;4.65;;
42760;SDS011;31672;47.638;19.026;2023-04-22T18:08:49;9.65;;;5.00;;
42760;SDS011;31672;47.638;19.026;2023-04-22T18:13:52;8.98;;;5.50;;
42760;SDS011;31672;47.638;19.026;2023-04-22T18:18:56;6.70;;;4.32;;
42760;SDS011;31672;47.638;19.026;2023-04-22T18:24:00;6.03;;;4.30;;
42760;SDS011;31672;47.638;19.026;2023-04-22T18:29:03;6.43;;;4.40;;
42760;SDS011;31672;47.638;19.026;2023-04-22T18:34:06;7.50;;;4.10;;
42760;SDS011;31672;47.638;19.026;2023-04-22T18:39:14;6.00;;;3.50;;
42760;SDS011;31672;47.638;19.026;2023-04-22T18:44:17;5.95;;;4.22;;
42760;SDS011;31672;47.638;19.026;2023-04-22T18:49:21;13.87;;;7.33;;
42760;SDS011;31672;47.638;19.026;2023-04-22T18:54:24;13.07;;;7.37;;
42760;SDS011;31672;47.638;19.026;2023-04-22T18:59:31;7.53;;;4.87;;
42760;SDS011;31672;47.638;19.026;2023-04-22T19:04:34;8.93;;;5.00;;
42760;SDS011;31672;47.638;19.026;2023-04-22T19:09:37;10.30;;;4.67;;
42760;SDS011;31672;47.638;19.026;2023-04-22T19:14:40;6.17;;;4.23;;
42760;SDS011;31672;47.638;19.026;2023-04-22T19:19:44;7.77;;;3.67;;
42760;SDS011;31672;47.638;19.026;2023-04-22T19:24:47;7.73;;;4.47;;
42760;SDS011;31672;47.638;19.026;2023-04-22T19:29:51;7.50;;;4.10;;
42760;SDS011;31672;47.638;19.026;2023-04-22T19:34:54;7.83;;;4.47;;
42760;SDS011;31672;47.638;19.026;2023-04-22T19:39:57;6.43;;;4.47;;
42760;SDS011;31672;47.638;19.026;2023-04-22T19:45:00;8.43;;;4.70;;
42760;SDS011;31672;47.638;19.026;2023-04-22T19:50:07;8.30;;;4.70;;
42760;SDS011;31672;47.638;19.026;2023-04-22T19:55:11;7.27;;;5.03;;
42760;SDS011;31672;47.638;19.026;2023-04-22T20:00:14;13.40;;;5.67;;
42760;SDS011;31672;47.638;19.026;2023-04-22T20:05:19;12.00;;;6.67;;
42760;SDS011;31672;47.638;19.026;2023-04-22T20:10:23;12.87;;;6.83;;
42760;SDS011;31672;47.638;19.026;2023-04-22T20:15:27;11.77;;;6.73;;
42760;SDS011;31672;47.638;19.026;2023-04-22T20:20:31;9.63;;;5.17;;
42760;SDS011;31672;47.638;19.026;2023-04-22T20:25:36;8.83;;;5.40;;
42760;SDS011;31672;47.638;19.026;2023-04-22T20:30:43;12.30;;;5.57;;
42760;SDS011;31672;47.638;19.026;2023-04-22T20:35:46;7.23;;;4.97;;
42760;SDS011;31672;47.638;19.026;2023-04-22T20:40:51;10.37;;;5.77;;
42760;SDS011;31672;47.638;19.026;2023-04-22T20:45:54;13.50;;;5.90;;
42760;SDS011;31672;47.638;19.026;2023-04-22T20:50:58;11.67;;;6.30;;
42760;SDS011;31672;47.638;19.026;2023-04-22T20:56:01;8.37;;;5.17;;
42760;SDS011;31672;47.638;19.026;2023-04-22T21:01:06;12.20;;;5.70;;
42760;SDS011;31672;47.638;19.026;2023-04-22T21:06:10;7.97;;;4.77;;
42760;SDS011;31672;47.638;19.026;2023-04-22T21:11:14;8.33;;;5.50;;
42760;SDS011;31672;47.638;19.026;2023-04-22T21:16:17;7.93;;;5.53;;
42760;SDS011;31672;47.638;19.026;2023-04-22T21:21:26;7.67;;;5.10;;
42760;SDS011;31672;47.638;19.026;2023-04-22T21:26:36;11.67;;;5.10;;
42760;SDS011;31672;47.638;19.026;2023-04-22T21:31:42;10.73;;;6.17;;
42760;SDS011;31672;47.638;19.026;2023-04-22T21:36:58;10.70;;;6.00;;
42760;SDS011;31672;47.638;19.026;2023-04-22T21:42:01;9.63;;;6.33;;
42760;SDS011;31672;47.638;19.026;2023-04-22T21:47:09;8.67;;;5.47;;
42760;SDS011;31672;47.638;19.026;2023-04-22T21:52:12;8.30;;;5.30;;
42760;SDS011;31672;47.638;19.026;2023-04-22T21:57:15;10.07;;;5.93;;
42760;SDS011;31672;47.638;19.026;2023-04-22T22:02:18;9.67;;;4.93;;
42760;SDS011;31672;47.638;19.026;2023-04-22T22:07:22;10.23;;;6.93;;
42760;SDS011;31672;47.638;19.026;2023-04-22T22:12:25;6.47;;;4.23;;
42760;SDS011;31672;47.638;19.026;2023-04-22T22:17:28;7.47;;;4.53;;
42760;SDS011;31672;47.638;19.026;2023-04-22T22:22:31;9.30;;;5.10;;
42760;SDS011;31672;47.638;19.026;2023-04-22T22:27:35;6.70;;;4.00;;
42760;SDS011;31672;47.638;19.026;2023-04-22T22:32:42;6.73;;;3.97;;
42760;SDS011;31672;47.638;19.026;2023-04-22T22:37:45;8.47;;;4.77;;
42760;SDS011;31672;47.638;19.026;2023-04-22T22:42:48;6.30;;;3.87;;
42760;SDS011;31672;47.638;19.026;2023-04-22T22:47:51;7.27;;;4.60;;
42760;SDS011;31672;47.638;19.026;2023-04-22T22:52:55;6.27;;;3.77;;
42760;SDS011;31672;47.638;19.026;2023-04-22T22:57:58;6.77;;;4.63;;
42760;SDS011;31672;47.638;19.026;2023-04-22T23:03:01;7.30;;;4.70;;
42760;SDS011;31672;47.638;19.026;2023-04-22T23:08:05;7.47;;;4.43;;
42760;SDS011;31672;47.638;19.026;2023-04-22T23:13:08;6.60;;;4.50;;
42760;SDS011;31672;47.638;19.026;2023-04-22T23:18:11;9.33;;;5.70;;
42760;SDS011;31672;47.638;19.026;2023-04-22T23:23:17;6.90;;;4.60;;
42760;SDS011;31672;47.638;19.026;2023-04-22T23:28:20;6.83;;;4.07;;
42760;SDS011;31672;47.638;19.026;2023-04-22T23:33:25;6.57;;;4.70;;
42760;SDS011;31672;47.638;19.026;2023-04-22T23:38:29;5.77;;;4.33;;
42760;SDS011;31672;47.638;19.026;2023-04-22T23:43:32;7.97;;;5.10;;
42760;SDS011;31672;47.638;19.026;2023-04-22T23:48:35;5.43;;;4.30;;
42760;SDS011;31672;47.638;19.026;2023-04-22T23:53:38;7.00;;;4.40;;
42760;SDS011;31672;47.638;19.026;2023-04-22T23:58:41;7.63;;;5.60;;
